Charlotte Amalie, Virgin Islands
Current Conditions -  °F | °C
As of 11:00 AM on Thursday 23 Oct 2014 (Local Time) from TUPJ Reporting Station
Scattered Clouds Scattered Clouds  
Wind Chill: 86°   Ceiling: Unl
Heat Index: 97°   Visibility: 6mi
Dew Point: 77°   Wind: 13mph
Humidity: 74%   Direction: 140°SE
Pressure: 29.94"   Gusts: NA
Location:  18.3436°N, 64.9322°W
Report Text: TUPJ 231500Z 14011KT 9999 SCT021 30/25 Q1014 RMK A2997
Loading
Personal Weather Stations






























Interactive Weather Map
Tropical Storm Tracking
New forecast layout! Learn more

10-Day Weather Forecast

Advertisements
Track Severe Weather on mobile